This is the latest recevied weather packets stored in our database for station/object W4TBD-13. If no packets are shown the sender has not sent any weather packets the latest 10 day(s).
| Time | Temp. | Humidity | Pressure | Rain* | Wind** | Luminosity | Snow |
|---|---|---|---|---|---|---|---|
| 1777785605 | 10.56° C | 74% | 1003.7 hPa | 0 mm | - | 0 W/m² | - |
| 1777784705 | 10.56° C | 75% | 1003.8 hPa | 0 mm | - | 0 W/m² | - |
| 1777784104 | 10.56° C | 78% | 1003.8 hPa | 0 mm | - | 0 W/m² | - |
| 1777783504 | 10.56° C | 81% | 1003.9 hPa | 0 mm | - | 0 W/m² | - |
| 1777782603 | 10.56° C | 80% | 1003.6 hPa | 0 mm | - | 0 W/m² | - |
| 1777781104 | 10.56° C | 82% | 1003.4 hPa | 0 mm | - | 0 W/m² | - |
| 1777780804 | 10.56° C | 82% | 1003.5 hPa | 0 mm | - | 0 W/m² | - |
| 1777780504 | 10.56° C | 82% | 1003.5 hPa | 0 mm | - | 0 W/m² | - |
| 1777778704 | 10.56° C | 82% | 1003.4 hPa | 0 mm | - | 0 W/m² | - |
| 1777775404 | 11.67° C | 79% | 1003.5 hPa | 0 mm | - | 0 W/m² | - |
| 1777774204 | 11.67° C | 75% | 1003.5 hPa | 0 mm | - | 0 W/m² | - |
| 1777773305 | 11.67° C | 77% | 1003.5 hPa | 0 mm | - | 0 W/m² | - |
| 1777771505 | 12.22° C | 75% | 1003.3 hPa | 0 mm | - | 0 W/m² | - |
| 1777770005 | 12.22° C | 70% | 1002.8 hPa | 0 mm | - | 0 W/m² | - |
| 1777769105 | 12.22° C | 69% | 1002.9 hPa | 0 mm | - | 0 W/m² | - |
| 1777768805 | 12.22° C | 68% | 1002.7 hPa | 0 mm | - | 0 W/m² | - |
| 1777764604 | 13.89° C | 57% | 1001.7 hPa | 0 mm | - | 0 W/m² | - |
| 1777764305 | 13.89° C | 55% | 1001.7 hPa | 0 mm | - | 0 W/m² | - |
| 1777760405 | 15° C | 50% | 1001.5 hPa | 0 mm | - | 0 W/m² | - |
| 1777758304 | 15° C | 53% | 1001.9 hPa | 0 mm | - | 0 W/m² | - |
| 1777754404 | 14.44° C | 51% | 1001.5 hPa | 0 mm | - | 0 W/m² | - |
| 1777747804 | 14.44° C | 49% | 1002.6 hPa | 0 mm | - | 0 W/m² | - |
| 1777747206 | 15° C | 47% | 1002.9 hPa | 0 mm | - | 0 W/m² | - |
| 1777746904 | 15.56° C | 47% | 1002.7 hPa | 0 mm | - | 0 W/m² | - |
| 1777742105 | 12.78° C | 52% | 1004.2 hPa | 0 mm | - | 171 W/m² | - |
* Rain latest hour (hover to see other rain measurements)
** Current wind speed in m/s (hover to see current wind gust speed)